Time;durP1;ratioP1;P1;durP2;ratioP2;P2;SDS_P1;SDS_P2;PMS_P1;PMS_P2;Temp;Humidity;BMP_temperature;BMP_pressure;BME280_temperature;BME280_humidity;BME280_pressure;Samples;Min_cycle;Max_cycle;Signal;HPM_P1;HPM_P2
2022/01/31 00:01:29;;;;;;;22.38;5.28;;;3.90;99.90;;;;;;4937280;28;20130;-83
2022/01/31 00:03:55;;;;;;;26.83;5.35;;;3.90;99.90;;;;;;4935486;28;20042;-83
2022/01/31 00:06:21;;;;;;;23.65;5.15;;;4.00;99.90;;;;;;4936612;28;20336;-82
2022/01/31 00:08:47;;;;;;;22.05;4.82;;;4.00;99.90;;;;;;4921281;28;20045;-84
2022/01/31 00:11:13;;;;;;;24.75;5.15;;;4.20;99.90;;;;;;4921568;28;20088;-83
2022/01/31 00:13:43;;;;;;;24.63;5.72;;;4.20;99.90;;;;;;4918000;28;20053;-82
2022/01/31 00:16:14;;;;;;;17.65;5.43;;;4.20;99.90;;;;;;4921028;28;20088;-84
2022/01/31 00:18:40;;;;;;;20.48;4.90;;;4.20;99.90;;;;;;4939433;28;20041;-83
2022/01/31 00:21:07;;;;;;;25.40;5.55;;;4.30;99.90;;;;;;4918437;28;20247;-83
2022/01/31 00:23:33;;;;;;;24.45;5.63;;;4.30;99.90;;;;;;4918367;28;20080;-83
2022/01/31 00:25:59;;;;;;;21.55;5.60;;;4.40;99.90;;;;;;4905248;28;20072;-83
2022/01/31 00:28:25;;;;;;;18.73;5.22;;;4.40;99.90;;;;;;4908965;28;20099;-83
2022/01/31 00:30:51;;;;;;;17.00;5.68;;;4.50;99.90;;;;;;4927677;28;20530;-82
2022/01/31 00:33:17;;;;;;;20.05;4.97;;;4.40;99.90;;;;;;4923438;28;20044;-84
2022/01/31 00:35:42;;;;;;;22.77;5.60;;;4.40;99.90;;;;;;4919030;28;20045;-83
2022/01/31 00:38:08;;;;;;;22.40;5.30;;;4.40;99.90;;;;;;4927682;28;20111;-85
2022/01/31 00:40:35;;;;;;;19.80;6.25;;;4.30;99.90;;;;;;4924349;28;20053;-83
2022/01/31 00:43:01;;;;;;;19.15;5.57;;;4.30;99.90;;;;;;4923245;28;20443;-82
2022/01/31 00:45:29;;;;;;;19.75;5.43;;;4.20;99.90;;;;;;4916294;28;20056;-83
2022/01/31 00:48:03;;;;;;;21.45;5.18;;;4.30;99.90;;;;;;4927798;28;21228;-84
2022/01/31 00:50:37;;;;;;;19.83;5.68;;;4.30;99.90;;;;;;4920070;28;21002;-82
2022/01/31 00:53:03;;;;;;;21.08;5.78;;;4.30;99.90;;;;;;4927491;28;20467;-82
2022/01/31 00:55:30;;;;;;;19.60;5.68;;;4.30;99.90;;;;;;4931151;28;20079;-85
2022/01/31 00:57:56;;;;;;;16.88;5.38;;;4.30;99.90;;;;;;4927946;28;20187;-81
2022/01/31 01:00:22;;;;;;;18.17;5.13;;;4.40;99.90;;;;;;4913034;28;20534;-83
2022/01/31 01:02:47;;;;;;;25.25;6.00;;;4.50;99.90;;;;;;4928154;28;20045;-82
2022/01/31 01:05:15;;;;;;;19.92;5.78;;;4.40;99.90;;;;;;4948437;28;20242;-82
2022/01/31 01:07:45;;;;;;;20.23;5.80;;;4.50;99.90;;;;;;4921601;28;20777;-85
2022/01/31 01:10:16;;;;;;;19.23;5.75;;;4.40;99.90;;;;;;4921285;28;20251;-82
2022/01/31 01:12:42;;;;;;;17.20;5.97;;;4.40;99.90;;;;;;4908779;28;20044;-84
2022/01/31 01:15:09;;;;;;;17.77;6.53;;;4.40;99.90;;;;;;4911829;28;20091;-84
2022/01/31 01:17:35;;;;;;;19.90;6.22;;;4.40;99.90;;;;;;4921829;28;20051;-85
2022/01/31 01:20:03;;;;;;;23.17;6.90;;;4.40;99.90;;;;;;4920390;28;20594;-84
2022/01/31 01:22:28;;;;;;;21.83;6.72;;;4.40;99.90;;;;;;4927745;28;20283;-83
2022/01/31 01:24:54;;;;;;;20.88;7.05;;;4.50;99.90;;;;;;4946815;28;20045;-83
2022/01/31 01:27:21;;;;;;;19.85;7.43;;;4.40;99.90;;;;;;4930254;28;20064;-83
2022/01/31 01:29:47;;;;;;;20.08;7.72;;;4.50;99.90;;;;;;4923975;28;20192;-85
2022/01/31 01:32:16;;;;;;;20.15;7.90;;;4.50;99.90;;;;;;4910102;28;20067;-83
2022/01/31 01:34:43;;;;;;;17.83;7.75;;;4.50;99.90;;;;;;4939226;28;20052;-82
2022/01/31 01:37:09;;;;;;;24.08;8.13;;;4.40;99.90;;;;;;4920646;28;20607;-83
2022/01/31 01:39:35;;;;;;;23.60;10.10;;;4.40;99.90;;;;;;4914502;28;20057;-83
2022/01/31 01:42:02;;;;;;;25.25;10.43;;;4.40;99.90;;;;;;4925045;28;20919;-83
2022/01/31 01:44:50;;;;;;;20.65;10.70;;;4.40;99.90;;;;;;4927932;28;20049;-88
2022/01/31 01:47:25;;;;;;;21.08;10.38;;;4.30;99.90;;;;;;4927710;28;20244;-87
2022/01/31 01:49:53;;;;;;;29.05;13.40;;;4.20;99.90;;;;;;4934014;28;20509;-84
2022/01/31 01:52:19;;;;;;;29.35;11.80;;;4.10;99.90;;;;;;4931603;28;20072;-84
2022/01/31 01:54:46;;;;;;;22.55;12.85;;;3.90;99.90;;;;;;4937733;28;20328;-85
2022/01/31 01:57:12;;;;;;;27.92;12.50;;;3.80;99.90;;;;;;4933790;28;20076;-85
2022/01/31 01:59:40;;;;;;;26.42;12.90;;;3.70;99.90;;;;;;4927946;28;20049;-86
2022/01/31 02:02:06;;;;;;;26.85;12.85;;;3.70;99.90;;;;;;4910933;28;20128;-86
2022/01/31 02:04:32;;;;;;;29.95;13.05;;;3.70;99.90;;;;;;4918632;28;20053;-84
2022/01/31 02:06:59;;;;;;;25.05;13.20;;;3.60;99.90;;;;;;4928097;28;20426;-85
2022/01/31 02:09:27;;;;;;;32.50;14.90;;;3.60;99.90;;;;;;4921767;28;20330;-88
2022/01/31 02:11:57;;;;;;;30.08;14.20;;;3.60;99.90;;;;;;4929764;28;21065;-86
2022/01/31 02:14:26;;;;;;;31.08;13.88;;;3.60;99.90;;;;;;4936614;28;20049;-85
2022/01/31 02:16:53;;;;;;;28.05;13.75;;;3.60;99.90;;;;;;4935448;28;20516;-87
2022/01/31 02:19:19;;;;;;;27.45;13.68;;;3.60;99.90;;;;;;4906982;28;20631;-85
2022/01/31 02:21:51;;;;;;;29.38;13.63;;;3.60;99.90;;;;;;4929609;28;20067;-86
2022/01/31 02:24:17;;;;;;;27.00;13.63;;;3.60;99.90;;;;;;4942291;28;20704;-90
2022/01/31 02:26:43;;;;;;;29.55;14.32;;;3.60;99.90;;;;;;4929600;28;20209;-88
2022/01/31 02:29:11;;;;;;;30.17;14.18;;;3.60;99.90;;;;;;4924774;28;20099;-87
2022/01/31 02:31:42;;;;;;;31.05;13.43;;;3.60;99.90;;;;;;4935161;28;20041;-86
2022/01/31 02:34:08;;;;;;;26.88;14.02;;;3.70;99.90;;;;;;4934814;28;20042;-87
2022/01/31 02:36:33;;;;;;;29.73;15.75;;;3.60;99.90;;;;;;4937219;28;20368;-89
2022/01/31 02:38:59;;;;;;;26.25;14.50;;;3.70;99.90;;;;;;4900206;28;20244;-88
2022/01/31 02:41:27;;;;;;;31.40;14.18;;;3.60;99.90;;;;;;4921543;28;20452;-92
2022/01/31 02:43:55;;;;;;;27.77;14.45;;;3.70;99.90;;;;;;4919276;28;20051;-88
2022/01/31 02:46:24;;;;;;;23.13;13.52;;;3.70;99.90;;;;;;4920073;28;20108;-88
2022/01/31 02:48:52;;;;;;;27.75;14.50;;;3.70;99.90;;;;;;4928406;28;20107;-86
2022/01/31 02:51:22;;;;;;;29.70;14.90;;;3.70;99.90;;;;;;4936914;28;20055;-88
2022/01/31 02:53:48;;;;;;;31.67;15.25;;;3.70;99.90;;;;;;4926205;28;20059;-87
2022/01/31 02:56:14;;;;;;;28.92;15.02;;;3.80;99.90;;;;;;4935965;28;20053;-89
2022/01/31 02:58:40;;;;;;;23.20;14.23;;;3.80;99.90;;;;;;4925962;28;20459;-87
2022/01/31 03:01:07;;;;;;;26.90;14.40;;;3.70;99.90;;;;;;4941473;28;20320;-89
2022/01/31 03:03:32;;;;;;;23.50;14.27;;;3.80;99.90;;;;;;4930396;28;20281;-91
2022/01/31 03:05:58;;;;;;;20.38;13.35;;;3.80;99.90;;;;;;4920204;28;20262;-91
2022/01/31 03:08:27;;;;;;;19.35;12.57;;;3.70;99.90;;;;;;4910993;28;20099;-89
2022/01/31 03:10:53;;;;;;;19.60;12.68;;;3.60;99.90;;;;;;4912187;28;20490;-93
2022/01/31 03:13:21;;;;;;;19.27;12.13;;;3.60;99.90;;;;;;4930331;28;20076;-88
2022/01/31 03:15:49;;;;;;;22.73;12.63;;;3.60;99.90;;;;;;4928826;28;20769;-86
2022/01/31 03:18:15;;;;;;;19.92;12.48;;;3.70;99.90;;;;;;4937980;28;20432;-86
2022/01/31 03:20:43;;;;;;;16.60;11.55;;;3.60;99.90;;;;;;4943612;28;20917;-92
2022/01/31 03:23:11;;;;;;;18.83;12.20;;;3.60;99.90;;;;;;4930466;28;20111;-88
2022/01/31 03:25:37;;;;;;;16.42;11.90;;;3.60;99.90;;;;;;4927415;28;20187;-88
2022/01/31 03:28:02;;;;;;;17.27;12.27;;;3.60;99.90;;;;;;4939662;28;20528;-88
2022/01/31 03:30:29;;;;;;;19.70;11.68;;;3.60;99.90;;;;;;4926189;28;20484;-86
2022/01/31 03:32:54;;;;;;;17.08;11.68;;;3.70;99.90;;;;;;4891817;28;20546;-86
2022/01/31 03:35:30;;;;;;;;;;;;;;;;;;;;;
2022/01/31 03:37:56;;;;;;;18.77;12.80;;;3.60;99.90;;;;;;4948864;28;20317;-90
2022/01/31 03:40:25;;;;;;;19.00;12.27;;;3.60;99.90;;;;;;4933213;28;20072;-89
2022/01/31 03:42:50;;;;;;;16.33;11.48;;;3.80;99.90;;;;;;4913995;28;20111;-90
2022/01/31 03:45:16;;;;;;;19.30;12.18;;;3.80;99.90;;;;;;4934108;28;20389;-87
2022/01/31 03:47:46;;;;;;;20.45;12.18;;;3.80;99.90;;;;;;4926359;28;20556;-87
2022/01/31 03:50:18;;;;;;;20.27;12.82;;;3.70;99.90;;;;;;4924755;28;20775;-92
2022/01/31 03:52:44;;;;;;;18.58;12.30;;;3.90;99.90;;;;;;4937880;28;20032;-88
2022/01/31 03:55:13;;;;;;;21.15;12.88;;;4.00;99.90;;;;;;4956072;28;20614;-88
2022/01/31 03:57:39;;;;;;;20.83;12.38;;;3.90;99.90;;;;;;4949193;28;20046;-88
2022/01/31 04:00:09;;;;;;;20.58;12.45;;;3.90;99.90;;;;;;4932634;28;20050;-88
2022/01/31 04:02:35;;;;;;;22.13;13.80;;;4.10;99.90;;;;;;4950794;28;20042;-86
2022/01/31 04:05:00;;;;;;;21.02;13.10;;;4.20;99.90;;;;;;4934095;28;20048;-86
2022/01/31 04:07:26;;;;;;;26.35;14.07;;;4.10;99.90;;;;;;4933349;28;20048;-85
2022/01/31 04:09:53;;;;;;;23.15;13.85;;;4.20;99.90;;;;;;4924095;28;20049;-86
2022/01/31 04:12:19;;;;;;;22.55;13.35;;;4.20;99.90;;;;;;4933122;28;20384;-86
2022/01/31 04:14:45;;;;;;;24.20;12.98;;;4.30;99.90;;;;;;4916142;28;20146;-85
2022/01/31 04:17:11;;;;;;;22.70;13.73;;;4.30;99.90;;;;;;4901025;28;20041;-86
2022/01/31 04:19:40;;;;;;;21.40;11.93;;;4.30;99.90;;;;;;4915114;28;20498;-85
2022/01/31 04:22:13;;;;;;;19.30;12.02;;;4.50;99.90;;;;;;4916669;28;20407;-87
2022/01/31 04:24:42;;;;;;;22.35;10.48;;;4.50;99.90;;;;;;4940179;28;20442;-87
2022/01/31 04:27:09;;;;;;;21.25;8.25;;;4.40;99.90;;;;;;4940744;28;20048;-87
2022/01/31 04:29:39;;;;;;;19.02;7.75;;;4.70;99.90;;;;;;4917796;28;20217;-86
2022/01/31 04:32:06;;;;;;;21.17;6.55;;;4.80;99.90;;;;;;4932638;28;20057;-85
2022/01/31 04:34:31;;;;;;;26.40;6.28;;;5.00;99.90;;;;;;4915033;28;20046;-86
2022/01/31 04:36:58;;;;;;;21.08;5.20;;;5.00;99.90;;;;;;4931751;28;20057;-86
2022/01/31 04:39:24;;;;;;;22.90;5.18;;;5.10;99.90;;;;;;4945267;28;20053;-87
2022/01/31 04:41:51;;;;;;;24.02;4.70;;;5.20;99.90;;;;;;4900934;28;20061;-85
2022/01/31 04:44:17;;;;;;;22.35;3.85;;;5.40;99.90;;;;;;4929168;28;20052;-86
2022/01/31 04:46:48;;;;;;;21.42;4.55;;;5.50;99.90;;;;;;4936187;28;20400;-86
2022/01/31 04:49:18;;;;;;;22.50;4.45;;;5.50;99.90;;;;;;4933434;28;20065;-87
2022/01/31 04:51:44;;;;;;;22.35;4.05;;;5.60;99.90;;;;;;4930683;28;20056;-88
2022/01/31 04:54:10;;;;;;;23.38;4.00;;;5.70;99.90;;;;;;4948913;28;20033;-87
2022/01/31 04:56:38;;;;;;;22.92;3.63;;;5.70;99.90;;;;;;4923601;28;20287;-86
2022/01/31 04:59:04;;;;;;;21.55;3.70;;;5.90;99.90;;;;;;4939850;28;20046;-86
2022/01/31 05:01:31;;;;;;;20.08;3.65;;;5.90;99.90;;;;;;4943283;28;20674;-86
2022/01/31 05:03:57;;;;;;;20.30;3.97;;;5.90;99.90;;;;;;4943591;28;20052;-87
2022/01/31 05:06:30;;;;;;;21.70;3.60;;;5.90;99.90;;;;;;4953240;28;20049;-86
2022/01/31 05:08:56;;;;;;;17.50;3.47;;;5.90;99.90;;;;;;4942928;28;20053;-85
2022/01/31 05:11:24;;;;;;;22.63;3.92;;;6.00;99.90;;;;;;4922664;28;20112;-88
2022/01/31 05:13:50;;;;;;;24.85;4.30;;;6.00;99.90;;;;;;4907331;28;20108;-87
2022/01/31 05:16:16;;;;;;;23.27;3.60;;;6.00;99.90;;;;;;4909727;28;20050;-85
2022/01/31 05:18:44;;;;;;;26.13;4.07;;;6.00;99.90;;;;;;4937909;28;20997;-85
2022/01/31 05:21:10;;;;;;;26.20;3.65;;;6.00;99.90;;;;;;4931555;28;21045;-86
2022/01/31 05:23:36;;;;;;;20.85;3.65;;;6.10;99.90;;;;;;4940260;28;20102;-88
2022/01/31 05:26:02;;;;;;;23.85;3.85;;;6.00;99.90;;;;;;4921569;28;20041;-87
2022/01/31 05:28:28;;;;;;;20.90;3.60;;;6.00;99.90;;;;;;4938409;28;20053;-87
2022/01/31 05:30:53;;;;;;;23.17;3.40;;;5.90;99.90;;;;;;4920281;28;20050;-87
2022/01/31 05:33:19;;;;;;;17.40;3.47;;;5.80;99.90;;;;;;4906508;28;20110;-87
2022/01/31 05:38:27;;;;;;;16.42;3.50;;;5.80;99.90;;;;;;5021161;27;20498;-84
2022/01/31 05:40:53;;;;;;;18.50;3.58;;;5.70;99.90;;;;;;4997713;28;20542;-82
2022/01/31 05:43:21;;;;;;;18.40;3.45;;;5.70;99.90;;;;;;5018977;28;20051;-85
2022/01/31 05:45:47;;;;;;;17.52;3.10;;;5.60;99.90;;;;;;5013113;28;20516;-84
2022/01/31 05:48:13;;;;;;;23.75;3.72;;;5.60;99.90;;;;;;5029760;27;20047;-83
2022/01/31 05:50:39;;;;;;;20.70;3.80;;;5.60;99.90;;;;;;5052549;27;20420;-85
2022/01/31 05:53:07;;;;;;;26.98;3.80;;;5.60;99.90;;;;;;5021944;28;20150;-88
2022/01/31 05:55:36;;;;;;;18.80;3.13;;;5.70;99.90;;;;;;5005369;28;20051;-87
2022/01/31 05:58:03;;;;;;;18.63;2.72;;;5.70;99.90;;;;;;5025686;28;20131;-87
2022/01/31 06:00:36;;;;;;;9.43;1.33;;;5.60;99.90;;;;;;5025980;28;20075;-90
2022/01/31 06:03:01;;;;;;;6.47;1.17;;;5.40;99.90;;;;;;5020010;28;20059;-90
2022/01/31 06:05:27;;;;;;;9.80;1.10;;;5.30;99.90;;;;;;4993157;28;20044;-87
2022/01/31 06:07:53;;;;;;;7.28;1.25;;;5.20;99.90;;;;;;5024345;28;20042;-87
2022/01/31 06:10:22;;;;;;;4.05;1.05;;;5.20;99.90;;;;;;5007206;28;20051;-88
2022/01/31 06:12:51;;;;;;;7.30;0.93;;;5.10;99.90;;;;;;5005411;28;20924;-89
2022/01/31 06:15:17;;;;;;;9.70;1.25;;;5.20;99.90;;;;;;5029435;28;20109;-89
2022/01/31 06:17:42;;;;;;;6.53;1.10;;;5.10;99.90;;;;;;5023834;28;20496;-90
2022/01/31 06:20:08;;;;;;;10.52;1.40;;;5.10;99.90;;;;;;4986555;28;20126;-87
2022/01/31 06:22:34;;;;;;;8.35;1.55;;;5.10;99.90;;;;;;5007138;28;20428;-89
2022/01/31 06:25:00;;;;;;;9.35;1.40;;;5.10;99.90;;;;;;5023124;28;20058;-88
2022/01/31 06:27:26;;;;;;;11.68;1.80;;;5.00;99.90;;;;;;4995566;28;20618;-87
2022/01/31 06:29:52;;;;;;;11.73;1.73;;;5.10;99.90;;;;;;4993884;28;20848;-87
2022/01/31 06:32:19;;;;;;;12.05;1.85;;;5.10;99.90;;;;;;4987389;28;20044;-85
2022/01/31 06:34:45;;;;;;;8.82;1.30;;;5.20;99.90;;;;;;4991989;28;20929;-86
2022/01/31 06:37:11;;;;;;;11.43;2.00;;;5.10;99.90;;;;;;5010901;28;20051;-87
2022/01/31 06:39:36;;;;;;;10.00;1.70;;;5.20;99.90;;;;;;4999932;28;20039;-87
2022/01/31 06:42:02;;;;;;;13.55;1.88;;;5.10;99.90;;;;;;5021160;28;20039;-87
2022/01/31 06:44:28;;;;;;;10.85;1.85;;;5.10;99.90;;;;;;4999419;28;20198;-87
2022/01/31 06:46:54;;;;;;;11.30;1.98;;;5.20;99.90;;;;;;5016719;28;20070;-87
2022/01/31 06:49:19;;;;;;;15.02;2.20;;;5.20;99.90;;;;;;5009437;28;20039;-85
2022/01/31 06:51:45;;;;;;;11.65;1.85;;;5.10;99.90;;;;;;5004387;28;20044;-85
2022/01/31 06:54:11;;;;;;;11.75;2.03;;;5.10;99.90;;;;;;5005437;28;20040;-86
2022/01/31 06:56:40;;;;;;;14.25;2.03;;;5.20;99.90;;;;;;4981716;28;20052;-85
2022/01/31 06:59:05;;;;;;;14.30;2.20;;;5.20;99.90;;;;;;5002603;28;20134;-86
2022/01/31 07:01:31;;;;;;;19.83;2.90;;;5.20;99.90;;;;;;4982363;28;20044;-85
2022/01/31 07:03:57;;;;;;;14.77;2.72;;;5.20;99.90;;;;;;5000520;28;20638;-86
2022/01/31 07:06:26;;;;;;;16.63;2.63;;;5.30;99.90;;;;;;4981922;28;20044;-86
2022/01/31 07:08:52;;;;;;;16.38;2.40;;;5.20;99.90;;;;;;5001306;28;20048;-85
2022/01/31 07:11:23;;;;;;;17.60;2.35;;;5.30;99.90;;;;;;4983533;28;20044;-86
2022/01/31 07:14:00;;;;;;;17.05;2.83;;;5.30;99.90;;;;;;4988615;28;20147;-86
2022/01/31 07:16:27;;;;;;;20.25;2.85;;;5.30;99.90;;;;;;5006427;28;20536;-86
2022/01/31 07:18:59;;;;;;;15.95;2.55;;;5.40;99.90;;;;;;4999600;28;20130;-85
2022/01/31 07:21:33;;;;;;;15.25;2.03;;;5.40;99.90;;;;;;4998580;28;20130;-84
2022/01/31 07:24:18;;;;;;;15.93;1.85;;;5.40;99.90;;;;;;4981546;28;20047;-85
2022/01/31 07:26:45;;;;;;;12.90;1.73;;;5.50;99.90;;;;;;4997136;28;20044;-83
2022/01/31 07:29:11;;;;;;;9.55;1.48;;;5.50;99.90;;;;;;4979295;28;20557;-84
2022/01/31 07:31:38;;;;;;;10.23;1.45;;;5.50;99.90;;;;;;5000783;28;20067;-85
2022/01/31 07:34:04;;;;;;;10.93;1.55;;;5.50;99.90;;;;;;5002456;28;20093;-88
2022/01/31 07:36:30;;;;;;;10.10;1.30;;;5.50;99.90;;;;;;4988617;28;20056;-87
2022/01/31 07:38:56;;;;;;;7.90;1.38;;;5.40;99.90;;;;;;4994680;28;20048;-85
2022/01/31 07:41:23;;;;;;;9.93;1.48;;;5.40;99.90;;;;;;5004108;28;20097;-88
2022/01/31 07:43:49;;;;;;;10.45;1.92;;;5.40;99.90;;;;;;4990688;28;20195;-88
2022/01/31 07:46:15;;;;;;;8.70;1.10;;;5.40;99.90;;;;;;5008514;28;20402;-88
2022/01/31 07:48:44;;;;;;;7.68;1.25;;;5.40;99.90;;;;;;4993871;28;20063;-89
2022/01/31 07:51:11;;;;;;;7.90;1.20;;;5.40;99.90;;;;;;4983493;28;20046;-87
2022/01/31 07:53:39;;;;;;;8.15;1.27;;;5.40;99.90;;;;;;4985245;28;20826;-88
2022/01/31 07:56:08;;;;;;;10.05;1.30;;;5.40;99.90;;;;;;4991096;28;20048;-88
2022/01/31 07:58:35;;;;;;;9.95;1.60;;;5.30;99.90;;;;;;4987409;28;20051;-88
2022/01/31 08:01:01;;;;;;;13.25;1.95;;;5.30;99.90;;;;;;5005690;28;20048;-89
2022/01/31 08:03:28;;;;;;;9.20;1.55;;;5.30;99.90;;;;;;4990336;28;20555;-87
2022/01/31 08:05:56;;;;;;;9.32;1.95;;;5.30;99.90;;;;;;4988089;28;20919;-87
2022/01/31 08:08:24;;;;;;;11.18;1.95;;;5.40;99.90;;;;;;5014288;28;20050;-85
2022/01/31 08:10:51;;;;;;;10.57;1.60;;;5.40;99.90;;;;;;4985418;28;20062;-85
2022/01/31 08:13:17;;;;;;;12.10;1.60;;;5.40;99.90;;;;;;4994861;28;20758;-86
2022/01/31 08:16:01;;;;;;;12.02;1.98;;;5.40;99.90;;;;;;4978499;28;20100;-84
2022/01/31 08:18:27;;;;;;;9.45;1.60;;;5.50;99.90;;;;;;5005065;28;20052;-88
2022/01/31 08:20:53;;;;;;;11.88;1.70;;;5.50;99.90;;;;;;4988462;28;20549;-90
2022/01/31 08:23:19;;;;;;;10.40;2.05;;;5.60;99.90;;;;;;5000949;28;20080;-90
2022/01/31 08:25:49;;;;;;;13.18;1.70;;;5.50;99.90;;;;;;4984983;28;20085;-90
2022/01/31 08:28:17;;;;;;;10.32;1.73;;;5.60;99.90;;;;;;4980637;28;20049;-89
2022/01/31 08:30:58;;;;;;;13.98;2.00;;;5.60;99.90;;;;;;4984821;28;20047;-87
2022/01/31 08:33:43;;;;;;;11.57;1.73;;;5.60;99.90;;;;;;5005832;28;20044;-86
2022/01/31 08:36:09;;;;;;;11.88;1.92;;;5.60;99.90;;;;;;5016086;28;20493;-87
2022/01/31 08:38:38;;;;;;;14.35;2.58;;;5.70;99.90;;;;;;4984282;28;20561;-87
2022/01/31 08:41:05;;;;;;;12.25;2.42;;;5.70;99.90;;;;;;4953114;28;20044;-88
2022/01/31 08:43:32;;;;;;;13.20;1.75;;;5.70;99.90;;;;;;4987668;28;20047;-88
2022/01/31 08:45:58;;;;;;;14.05;2.13;;;5.80;99.90;;;;;;4967711;28;20071;-87
2022/01/31 08:48:25;;;;;;;12.32;1.80;;;5.90;99.90;;;;;;4977396;28;20051;-85
2022/01/31 08:50:51;;;;;;;12.43;2.53;;;6.00;99.90;;;;;;5004112;28;20135;-86
2022/01/31 08:53:17;;;;;;;16.08;2.30;;;6.00;99.90;;;;;;5005617;28;20504;-86
2022/01/31 08:55:52;;;;;;;11.90;2.03;;;6.10;99.90;;;;;;5010248;28;20040;-87
2022/01/31 08:58:21;;;;;;;11.57;1.80;;;6.20;99.90;;;;;;4987372;28;21003;-88
2022/01/31 09:00:57;;;;;;;12.23;2.08;;;6.20;99.90;;;;;;4986714;28;20211;-88
2022/01/31 09:04:00;;;;;;;10.75;2.08;;;6.30;99.90;;;;;;4973387;28;20044;-88
2022/01/31 09:06:12;;;;;;;15.60;2.30;;;6.40;99.90;;;;;;4997112;28;20063;-87
2022/01/31 09:08:39;;;;;;;15.02;3.28;;;6.40;99.90;;;;;;5002984;28;20052;-85
2022/01/31 09:11:05;;;;;;;14.40;3.38;;;6.40;99.90;;;;;;4978999;28;20685;-87
2022/01/31 09:13:32;;;;;;;14.23;3.67;;;6.40;99.90;;;;;;4984471;28;20073;-87
2022/01/31 09:15:59;;;;;;;14.43;3.80;;;6.40;99.90;;;;;;4984818;28;20125;-86
2022/01/31 09:18:25;;;;;;;18.67;3.85;;;6.40;99.90;;;;;;5004906;28;20116;-88
2022/01/31 09:20:51;;;;;;;14.52;2.50;;;6.50;99.90;;;;;;4998381;28;20411;-86
2022/01/31 09:23:19;;;;;;;15.05;3.00;;;6.50;99.90;;;;;;4999714;28;20163;-88
2022/01/31 09:25:47;;;;;;;14.98;3.17;;;6.60;99.90;;;;;;4999507;28;20340;-87
2022/01/31 09:28:14;;;;;;;15.13;2.47;;;6.60;99.90;;;;;;4989797;28;20047;-87
2022/01/31 09:30:41;;;;;;;14.55;2.30;;;6.60;99.90;;;;;;4975498;28;20043;-85
2022/01/31 09:33:10;;;;;;;9.93;1.92;;;6.70;99.90;;;;;;4980870;28;20564;-86
2022/01/31 09:35:40;;;;;;;8.73;2.13;;;6.60;99.90;;;;;;4999765;28;20044;-84
2022/01/31 09:38:08;;;;;;;10.07;1.60;;;6.70;99.90;;;;;;5000976;28;20052;-86
2022/01/31 09:40:35;;;;;;;13.35;2.15;;;6.80;99.90;;;;;;4994026;28;20040;-87
2022/01/31 09:46:17;;;;;;;11.13;2.15;;;6.80;99.90;;;;;;5004862;28;20162;-86
2022/01/31 09:48:44;;;;;;;8.60;1.45;;;6.80;99.90;;;;;;5003434;28;20123;-88
2022/01/31 09:51:17;;;;;;;6.32;1.20;;;6.80;99.90;;;;;;5001367;28;20420;-84
2022/01/31 09:53:44;;;;;;;7.10;1.13;;;6.80;99.90;;;;;;4981688;28;20047;-88
2022/01/31 09:56:14;;;;;;;7.30;1.30;;;6.80;99.90;;;;;;4999013;28;20043;-89
2022/01/31 09:58:42;;;;;;;7.55;1.40;;;6.80;99.90;;;;;;5004414;28;20481;-87
2022/01/31 10:01:15;;;;;;;9.00;1.25;;;6.80;99.90;;;;;;5002314;28;20113;-86
2022/01/31 10:03:54;;;;;;;11.43;1.50;;;7.00;99.90;;;;;;4983580;28;20070;-86
2022/01/31 10:06:43;;;;;;;8.60;1.58;;;7.20;99.90;;;;;;5006302;28;20055;-86
2022/01/31 10:09:16;;;;;;;9.52;1.30;;;7.50;99.90;;;;;;5002003;28;20044;-86
2022/01/31 10:17:22;;;;;;;12.20;1.80;;;7.50;99.90;;;;;;5002385;28;20900;-88
2022/01/31 10:19:48;;;;;;;31.05;2.20;;;7.60;99.90;;;;;;4982201;28;20505;-85
2022/01/31 10:22:16;;;;;;;10.07;1.50;;;7.50;99.90;;;;;;5000330;28;20255;-87
2022/01/31 10:24:45;;;;;;;10.43;1.50;;;7.60;99.90;;;;;;5007977;28;20532;-86
2022/01/31 10:27:21;;;;;;;8.25;1.25;;;7.60;99.90;;;;;;5006397;28;20044;-87
2022/01/31 10:29:48;;;;;;;9.48;1.67;;;7.50;99.90;;;;;;5008161;28;20985;-86
2022/01/31 10:32:18;;;;;;;8.63;1.45;;;7.40;99.90;;;;;;5009056;28;20052;-87
2022/01/31 10:34:53;;;;;;;10.30;1.25;;;7.70;99.90;;;;;;4998340;28;20150;-84
2022/01/31 10:37:22;;;;;;;9.85;1.58;;;7.80;99.90;;;;;;4970930;28;20114;-88
2022/01/31 10:45:32;;;;;;;7.40;1.30;;;7.80;99.90;;;;;;4996465;28;20071;-87
2022/01/31 10:53:47;;;;;;;11.00;1.40;;;7.90;99.90;;;;;;5002565;28;20155;-86
2022/01/31 10:56:13;;;;;;;12.13;1.75;;;7.80;99.90;;;;;;5003869;28;20567;-83
2022/01/31 10:58:58;;;;;;;8.52;1.40;;;7.70;99.90;;;;;;4999044;28;20052;-86
2022/01/31 11:01:26;;;;;;;12.30;1.40;;;7.60;99.90;;;;;;4999594;28;20623;-86
2022/01/31 11:03:53;;;;;;;9.07;1.65;;;7.70;99.90;;;;;;4981183;28;20656;-86
2022/01/31 11:06:20;;;;;;;9.07;1.50;;;7.80;99.90;;;;;;4998736;28;20048;-86
2022/01/31 11:08:47;;;;;;;9.30;1.42;;;8.00;99.90;;;;;;4987026;28;21055;-87
2022/01/31 11:11:13;;;;;;;11.63;1.60;;;8.00;99.90;;;;;;4992447;28;20078;-84
2022/01/31 11:13:39;;;;;;;9.63;1.27;;;8.00;99.90;;;;;;4980870;28;20090;-82
2022/01/31 11:16:06;;;;;;;8.02;1.45;;;8.10;99.90;;;;;;4996619;28;20541;-87
2022/01/31 11:18:34;;;;;;;9.77;1.52;;;8.30;99.90;;;;;;4997567;28;20536;-84
2022/01/31 11:21:08;;;;;;;7.57;1.30;;;8.40;99.90;;;;;;4992846;28;20909;-84
2022/01/31 11:23:40;;;;;;;7.40;1.33;;;8.20;99.90;;;;;;4999388;28;20075;-85
2022/01/31 11:26:11;;;;;;;8.75;1.15;;;8.30;99.90;;;;;;4998348;28;20466;-83
2022/01/31 11:28:41;;;;;;;11.05;1.73;;;8.40;99.90;;;;;;5002146;28;20840;-85
2022/01/31 11:31:07;;;;;;;9.23;1.27;;;8.50;99.90;;;;;;4984852;28;20503;-87
2022/01/31 11:33:36;;;;;;;9.45;1.30;;;8.70;99.90;;;;;;4993487;28;20075;-85
2022/01/31 11:36:03;;;;;;;9.60;1.50;;;8.70;99.90;;;;;;4994503;28;20246;-84
2022/01/31 11:38:29;;;;;;;8.90;1.63;;;8.80;99.90;;;;;;4996132;28;20618;-85
2022/01/31 11:41:05;;;;;;;6.65;1.30;;;8.90;99.90;;;;;;5001305;28;20044;-87
2022/01/31 11:43:32;;;;;;;12.00;1.65;;;8.90;99.90;;;;;;4996850;28;20570;-86
2022/01/31 11:46:00;;;;;;;11.13;1.80;;;9.00;99.90;;;;;;4977506;28;20060;-86
2022/01/31 11:48:29;;;;;;;10.35;1.83;;;9.10;99.90;;;;;;5001001;28;21043;-86
2022/01/31 11:51:05;;;;;;;9.90;2.22;;;9.20;99.90;;;;;;5004053;28;20528;-86
2022/01/31 11:53:39;;;;;;;11.02;1.70;;;9.30;99.90;;;;;;5003848;28;20571;-85
2022/01/31 11:56:17;;;;;;;13.25;2.00;;;9.30;99.90;;;;;;5004401;28;20052;-85
2022/01/31 11:58:46;;;;;;;8.60;1.67;;;9.40;99.90;;;;;;4987913;28;20147;-85
2022/01/31 12:01:13;;;;;;;12.65;1.70;;;9.40;99.90;;;;;;5004840;28;20051;-85
2022/01/31 12:03:58;;;;;;;10.57;1.75;;;9.60;99.90;;;;;;4993120;28;20061;-88
2022/01/31 12:06:26;;;;;;;12.98;1.75;;;9.20;99.90;;;;;;5010317;28;20085;-85
2022/01/31 12:09:03;;;;;;;12.68;2.35;;;9.30;99.90;;;;;;4975684;28;20079;-85
2022/01/31 12:11:30;;;;;;;12.50;1.90;;;9.20;99.90;;;;;;4993870;28;20055;-87
2022/01/31 12:14:06;;;;;;;11.32;1.92;;;9.20;99.90;;;;;;4990413;28;20537;-84
2022/01/31 12:16:45;;;;;;;13.25;2.33;;;9.00;99.90;;;;;;4973229;28;20048;-86
2022/01/31 12:22:01;;;;;;;13.40;2.13;;;9.00;99.90;;;;;;4998758;28;20044;-85
2022/01/31 12:24:27;;;;;;;10.90;2.00;;;8.90;99.90;;;;;;5006126;28;20346;-86
2022/01/31 12:27:17;;;;;;;10.60;1.88;;;9.00;99.90;;;;;;5010323;28;20584;-87
2022/01/31 12:29:45;;;;;;;12.55;2.38;;;9.10;99.90;;;;;;5001034;28;20051;-82
2022/01/31 12:32:32;;;;;;;13.23;2.28;;;9.20;99.90;;;;;;5002970;28;20071;-85
2022/01/31 12:35:02;;;;;;;17.08;2.58;;;9.20;99.90;;;;;;5004432;28;20048;-85
2022/01/31 12:37:49;;;;;;;14.75;2.05;;;9.20;99.90;;;;;;5001723;28;20051;-83
2022/01/31 12:40:18;;;;;;;13.70;2.22;;;9.20;99.90;;;;;;5004799;28;20060;-86
2022/01/31 12:45:38;;;;;;;12.77;2.47;;;9.30;99.90;;;;;;5009103;28;20052;-87
2022/01/31 12:48:10;;;;;;;12.98;2.17;;;9.20;99.90;;;;;;5003451;28;20040;-86
2022/01/31 12:50:50;;;;;;;13.85;2.00;;;9.20;99.90;;;;;;4980911;28;20063;-88
2022/01/31 12:53:23;;;;;;;14.07;2.00;;;9.20;99.90;;;;;;4998633;28;20239;-86
2022/01/31 12:56:13;;;;;;;11.90;2.38;;;9.20;99.90;;;;;;4984090;28;20197;-86
2022/01/31 12:59:09;;;;;;;12.70;1.95;;;9.10;99.90;;;;;;4997312;28;20043;-85
2022/01/31 13:01:43;;;;;;;11.73;1.88;;;9.00;99.90;;;;;;5002478;28;20567;-86
2022/01/31 13:04:21;;;;;;;14.32;2.17;;;8.90;99.90;;;;;;5003902;28;20528;-85
2022/01/31 13:06:48;;;;;;;12.98;2.10;;;8.80;99.90;;;;;;5002296;28;20047;-86
2022/01/31 13:09:20;;;;;;;15.13;2.60;;;8.80;99.90;;;;;;5011969;28;20494;-86
2022/01/31 13:11:49;;;;;;;11.10;1.75;;;8.80;99.90;;;;;;5012617;28;20391;-85
2022/01/31 13:14:17;;;;;;;14.65;2.30;;;8.70;99.90;;;;;;5013593;28;20048;-86
2022/01/31 13:16:46;;;;;;;9.40;1.90;;;8.80;99.90;;;;;;5004056;28;20789;-86
2022/01/31 13:19:17;;;;;;;13.27;2.00;;;8.80;99.90;;;;;;4989497;28;20453;-86
2022/01/31 13:21:43;;;;;;;12.95;1.83;;;8.80;99.90;;;;;;4993758;28;20060;-86
2022/01/31 13:24:10;;;;;;;12.88;1.98;;;8.80;99.90;;;;;;5009610;28;20404;-86